sensor_id;sensor_type;location;lat;lon;timestamp;P1;durP1;ratioP1;P2;durP2;ratioP2
14768;SDS011;7476;49.404;11.152;2024-01-30T00:02:18;13.30;;;9.47;;
14768;SDS011;7476;49.404;11.152;2024-01-30T00:04:45;14.10;;;8.80;;
14768;SDS011;7476;49.404;11.152;2024-01-30T00:07:12;14.83;;;8.80;;
14768;SDS011;7476;49.404;11.152;2024-01-30T00:09:38;14.87;;;9.13;;
14768;SDS011;7476;49.404;11.152;2024-01-30T00:12:05;12.37;;;9.07;;
14768;SDS011;7476;49.404;11.152;2024-01-30T00:14:32;15.13;;;8.67;;
14768;SDS011;7476;49.404;11.152;2024-01-30T00:16:59;17.40;;;9.77;;
14768;SDS011;7476;49.404;11.152;2024-01-30T00:19:27;17.37;;;10.20;;
14768;SDS011;7476;49.404;11.152;2024-01-30T00:21:54;16.50;;;9.60;;
14768;SDS011;7476;49.404;11.152;2024-01-30T00:24:20;19.30;;;10.13;;
14768;SDS011;7476;49.404;11.152;2024-01-30T00:26:47;15.40;;;9.67;;
14768;SDS011;7476;49.404;11.152;2024-01-30T00:29:14;19.17;;;10.17;;
14768;SDS011;7476;49.404;11.152;2024-01-30T00:31:44;20.57;;;10.60;;
14768;SDS011;7476;49.404;11.152;2024-01-30T00:34:11;18.13;;;10.10;;
14768;SDS011;7476;49.404;11.152;2024-01-30T00:36:39;19.53;;;10.67;;
14768;SDS011;7476;49.404;11.152;2024-01-30T00:39:06;16.57;;;9.70;;
14768;SDS011;7476;49.404;11.152;2024-01-30T00:41:34;15.93;;;9.87;;
14768;SDS011;7476;49.404;11.152;2024-01-30T00:44:01;14.97;;;9.20;;
14768;SDS011;7476;49.404;11.152;2024-01-30T00:46:28;15.03;;;9.30;;
14768;SDS011;7476;49.404;11.152;2024-01-30T00:48:54;12.10;;;8.07;;
14768;SDS011;7476;49.404;11.152;2024-01-30T00:51:21;12.93;;;8.10;;
14768;SDS011;7476;49.404;11.152;2024-01-30T00:53:49;10.53;;;7.90;;
14768;SDS011;7476;49.404;11.152;2024-01-30T00:56:16;13.13;;;7.43;;
14768;SDS011;7476;49.404;11.152;2024-01-30T00:58:43;11.33;;;7.40;;
14768;SDS011;7476;49.404;11.152;2024-01-30T01:01:10;11.67;;;7.17;;
14768;SDS011;7476;49.404;11.152;2024-01-30T01:03:36;9.27;;;6.83;;
14768;SDS011;7476;49.404;11.152;2024-01-30T01:06:03;11.53;;;7.57;;
14768;SDS011;7476;49.404;11.152;2024-01-30T01:08:30;9.90;;;7.00;;
14768;SDS011;7476;49.404;11.152;2024-01-30T01:10:58;11.50;;;7.80;;
14768;SDS011;7476;49.404;11.152;2024-01-30T01:13:25;9.43;;;6.80;;
14768;SDS011;7476;49.404;11.152;2024-01-30T01:15:52;9.57;;;7.03;;
14768;SDS011;7476;49.404;11.152;2024-01-30T01:18:18;10.53;;;7.20;;
14768;SDS011;7476;49.404;11.152;2024-01-30T01:20:45;12.03;;;6.53;;
14768;SDS011;7476;49.404;11.152;2024-01-30T01:23:12;7.60;;;6.37;;
14768;SDS011;7476;49.404;11.152;2024-01-30T01:25:39;11.40;;;6.43;;
14768;SDS011;7476;49.404;11.152;2024-01-30T01:28:07;8.80;;;6.97;;
14768;SDS011;7476;49.404;11.152;2024-01-30T01:30:34;9.60;;;6.37;;
14768;SDS011;7476;49.404;11.152;2024-01-30T01:33:00;9.90;;;6.77;;
14768;SDS011;7476;49.404;11.152;2024-01-30T01:35:27;8.80;;;6.30;;
14768;SDS011;7476;49.404;11.152;2024-01-30T01:37:54;9.20;;;6.30;;
14768;SDS011;7476;49.404;11.152;2024-01-30T01:40:22;8.73;;;6.00;;
14768;SDS011;7476;49.404;11.152;2024-01-30T01:42:49;8.37;;;5.90;;
14768;SDS011;7476;49.404;11.152;2024-01-30T01:45:18;9.13;;;5.97;;
14768;SDS011;7476;49.404;11.152;2024-01-30T01:47:47;10.87;;;5.80;;
14768;SDS011;7476;49.404;11.152;2024-01-30T01:50:16;7.33;;;5.50;;
14768;SDS011;7476;49.404;11.152;2024-01-30T01:52:44;10.93;;;6.53;;
14768;SDS011;7476;49.404;11.152;2024-01-30T01:55:12;9.33;;;5.83;;
14768;SDS011;7476;49.404;11.152;2024-01-30T01:57:40;8.13;;;5.80;;
14768;SDS011;7476;49.404;11.152;2024-01-30T02:00:08;10.50;;;6.00;;
14768;SDS011;7476;49.404;11.152;2024-01-30T02:02:37;8.50;;;5.83;;
14768;SDS011;7476;49.404;11.152;2024-01-30T02:05:05;8.53;;;5.67;;
14768;SDS011;7476;49.404;11.152;2024-01-30T02:07:32;7.60;;;5.23;;
14768;SDS011;7476;49.404;11.152;2024-01-30T02:09:59;8.87;;;5.87;;
14768;SDS011;7476;49.404;11.152;2024-01-30T02:12:26;9.50;;;6.27;;
14768;SDS011;7476;49.404;11.152;2024-01-30T02:14:52;10.20;;;6.60;;
14768;SDS011;7476;49.404;11.152;2024-01-30T02:17:20;9.00;;;6.10;;
14768;SDS011;7476;49.404;11.152;2024-01-30T02:19:49;9.50;;;5.90;;
14768;SDS011;7476;49.404;11.152;2024-01-30T02:22:17;8.57;;;5.47;;
14768;SDS011;7476;49.404;11.152;2024-01-30T02:24:45;11.33;;;6.43;;
14768;SDS011;7476;49.404;11.152;2024-01-30T02:27:11;7.47;;;6.00;;
14768;SDS011;7476;49.404;11.152;2024-01-30T02:29:38;7.03;;;5.93;;
14768;SDS011;7476;49.404;11.152;2024-01-30T02:32:05;9.17;;;6.03;;
14768;SDS011;7476;49.404;11.152;2024-01-30T02:34:32;8.23;;;6.00;;
14768;SDS011;7476;49.404;11.152;2024-01-30T02:36:59;6.53;;;5.50;;
14768;SDS011;7476;49.404;11.152;2024-01-30T02:39:27;9.33;;;5.70;;
14768;SDS011;7476;49.404;11.152;2024-01-30T02:41:54;9.47;;;6.27;;
14768;SDS011;7476;49.404;11.152;2024-01-30T02:44:21;9.73;;;6.10;;
14768;SDS011;7476;49.404;11.152;2024-01-30T02:46:48;8.93;;;5.43;;
14768;SDS011;7476;49.404;11.152;2024-01-30T02:49:14;6.67;;;5.63;;
14768;SDS011;7476;49.404;11.152;2024-01-30T02:51:41;8.50;;;5.43;;
14768;SDS011;7476;49.404;11.152;2024-01-30T02:54:08;9.50;;;5.67;;
14768;SDS011;7476;49.404;11.152;2024-01-30T02:56:36;10.60;;;5.90;;
14768;SDS011;7476;49.404;11.152;2024-01-30T02:59:02;10.93;;;6.03;;
14768;SDS011;7476;49.404;11.152;2024-01-30T03:01:29;9.83;;;6.17;;
14768;SDS011;7476;49.404;11.152;2024-01-30T03:03:56;8.80;;;6.40;;
14768;SDS011;7476;49.404;11.152;2024-01-30T03:06:23;8.93;;;6.00;;
14768;SDS011;7476;49.404;11.152;2024-01-30T03:08:50;7.77;;;5.73;;
14768;SDS011;7476;49.404;11.152;2024-01-30T03:11:16;9.20;;;5.97;;
14768;SDS011;7476;49.404;11.152;2024-01-30T03:13:44;8.63;;;6.17;;
14768;SDS011;7476;49.404;11.152;2024-01-30T03:16:10;10.33;;;6.10;;
14768;SDS011;7476;49.404;11.152;2024-01-30T03:18:37;7.90;;;6.47;;
14768;SDS011;7476;49.404;11.152;2024-01-30T03:21:04;10.10;;;6.50;;
14768;SDS011;7476;49.404;11.152;2024-01-30T03:23:30;7.90;;;6.10;;
14768;SDS011;7476;49.404;11.152;2024-01-30T03:25:57;7.37;;;6.10;;
14768;SDS011;7476;49.404;11.152;2024-01-30T03:28:24;8.57;;;5.87;;
14768;SDS011;7476;49.404;11.152;2024-01-30T03:30:52;7.87;;;6.23;;
14768;SDS011;7476;49.404;11.152;2024-01-30T03:33:19;9.00;;;6.00;;
14768;SDS011;7476;49.404;11.152;2024-01-30T03:35:45;7.33;;;6.00;;
14768;SDS011;7476;49.404;11.152;2024-01-30T03:38:13;6.83;;;5.47;;
14768;SDS011;7476;49.404;11.152;2024-01-30T03:40:40;8.03;;;6.13;;
14768;SDS011;7476;49.404;11.152;2024-01-30T03:43:06;9.20;;;6.33;;
14768;SDS011;7476;49.404;11.152;2024-01-30T03:45:33;9.20;;;6.70;;
14768;SDS011;7476;49.404;11.152;2024-01-30T03:48:01;10.30;;;6.00;;
14768;SDS011;7476;49.404;11.152;2024-01-30T03:50:28;9.60;;;6.90;;
14768;SDS011;7476;49.404;11.152;2024-01-30T03:52:54;8.37;;;6.10;;
14768;SDS011;7476;49.404;11.152;2024-01-30T03:55:21;9.73;;;5.90;;
14768;SDS011;7476;49.404;11.152;2024-01-30T03:57:48;9.00;;;5.97;;
14768;SDS011;7476;49.404;11.152;2024-01-30T04:00:14;8.13;;;5.77;;
14768;SDS011;7476;49.404;11.152;2024-01-30T04:02:41;8.07;;;5.57;;
14768;SDS011;7476;49.404;11.152;2024-01-30T04:05:10;9.30;;;5.53;;
14768;SDS011;7476;49.404;11.152;2024-01-30T04:07:36;7.77;;;5.47;;
14768;SDS011;7476;49.404;11.152;2024-01-30T04:10:03;8.77;;;5.47;;
14768;SDS011;7476;49.404;11.152;2024-01-30T04:12:31;8.00;;;5.70;;
14768;SDS011;7476;49.404;11.152;2024-01-30T04:14:58;7.73;;;5.37;;
14768;SDS011;7476;49.404;11.152;2024-01-30T04:17:25;7.73;;;5.67;;
14768;SDS011;7476;49.404;11.152;2024-01-30T04:19:53;8.13;;;5.77;;
14768;SDS011;7476;49.404;11.152;2024-01-30T04:22:21;6.37;;;5.17;;
14768;SDS011;7476;49.404;11.152;2024-01-30T04:24:48;6.07;;;5.10;;
14768;SDS011;7476;49.404;11.152;2024-01-30T04:27:14;8.83;;;5.47;;
14768;SDS011;7476;49.404;11.152;2024-01-30T04:29:41;7.40;;;5.43;;
14768;SDS011;7476;49.404;11.152;2024-01-30T04:32:08;7.53;;;5.40;;
14768;SDS011;7476;49.404;11.152;2024-01-30T04:34:36;6.87;;;5.43;;
14768;SDS011;7476;49.404;11.152;2024-01-30T04:37:03;8.90;;;5.77;;
14768;SDS011;7476;49.404;11.152;2024-01-30T04:39:32;8.07;;;5.40;;
14768;SDS011;7476;49.404;11.152;2024-01-30T04:41:59;8.60;;;5.93;;
14768;SDS011;7476;49.404;11.152;2024-01-30T04:44:26;8.97;;;5.80;;
14768;SDS011;7476;49.404;11.152;2024-01-30T04:46:52;7.83;;;5.80;;
14768;SDS011;7476;49.404;11.152;2024-01-30T04:49:19;9.70;;;6.20;;
14768;SDS011;7476;49.404;11.152;2024-01-30T04:51:46;8.60;;;6.10;;
14768;SDS011;7476;49.404;11.152;2024-01-30T04:54:12;8.33;;;5.80;;
14768;SDS011;7476;49.404;11.152;2024-01-30T04:56:41;10.43;;;7.50;;
14768;SDS011;7476;49.404;11.152;2024-01-30T04:59:07;8.73;;;6.00;;
14768;SDS011;7476;49.404;11.152;2024-01-30T05:01:34;8.97;;;6.10;;
14768;SDS011;7476;49.404;11.152;2024-01-30T05:04:01;8.50;;;7.13;;
14768;SDS011;7476;49.404;11.152;2024-01-30T05:06:28;11.90;;;7.13;;
14768;SDS011;7476;49.404;11.152;2024-01-30T05:08:55;11.17;;;8.33;;
14768;SDS011;7476;49.404;11.152;2024-01-30T05:11:22;11.10;;;7.97;;
14768;SDS011;7476;49.404;11.152;2024-01-30T05:13:50;11.73;;;8.23;;
14768;SDS011;7476;49.404;11.152;2024-01-30T05:16:16;12.57;;;9.30;;
14768;SDS011;7476;49.404;11.152;2024-01-30T05:18:43;14.37;;;9.37;;
14768;SDS011;7476;49.404;11.152;2024-01-30T05:21:10;14.47;;;10.07;;
14768;SDS011;7476;49.404;11.152;2024-01-30T05:23:37;15.43;;;10.20;;
14768;SDS011;7476;49.404;11.152;2024-01-30T05:26:03;11.10;;;9.23;;
14768;SDS011;7476;49.404;11.152;2024-01-30T05:28:30;14.47;;;8.57;;
14768;SDS011;7476;49.404;11.152;2024-01-30T05:30:59;13.00;;;9.07;;
14768;SDS011;7476;49.404;11.152;2024-01-30T05:33:25;12.60;;;9.47;;
14768;SDS011;7476;49.404;11.152;2024-01-30T05:35:52;16.97;;;9.80;;
14768;SDS011;7476;49.404;11.152;2024-01-30T05:38:19;13.43;;;9.27;;
14768;SDS011;7476;49.404;11.152;2024-01-30T05:40:46;14.23;;;9.70;;
14768;SDS011;7476;49.404;11.152;2024-01-30T05:43:13;15.10;;;9.73;;
14768;SDS011;7476;49.404;11.152;2024-01-30T05:45:39;16.73;;;10.90;;
14768;SDS011;7476;49.404;11.152;2024-01-30T05:48:07;16.20;;;10.93;;
14768;SDS011;7476;49.404;11.152;2024-01-30T05:50:34;18.20;;;11.97;;
14768;SDS011;7476;49.404;11.152;2024-01-30T05:53:01;18.03;;;12.10;;
14768;SDS011;7476;49.404;11.152;2024-01-30T05:55:27;18.07;;;11.67;;
14768;SDS011;7476;49.404;11.152;2024-01-30T05:57:54;20.30;;;12.23;;
14768;SDS011;7476;49.404;11.152;2024-01-30T06:00:21;22.33;;;12.13;;
14768;SDS011;7476;49.404;11.152;2024-01-30T06:02:48;18.03;;;11.97;;
14768;SDS011;7476;49.404;11.152;2024-01-30T06:05:16;20.07;;;12.40;;
14768;SDS011;7476;49.404;11.152;2024-01-30T06:07:42;22.13;;;12.90;;
14768;SDS011;7476;49.404;11.152;2024-01-30T06:10:09;17.97;;;12.37;;
14768;SDS011;7476;49.404;11.152;2024-01-30T06:12:36;17.03;;;12.20;;
14768;SDS011;7476;49.404;11.152;2024-01-30T06:15:04;19.43;;;12.27;;
14768;SDS011;7476;49.404;11.152;2024-01-30T06:17:31;20.37;;;11.87;;
14768;SDS011;7476;49.404;11.152;2024-01-30T06:19:58;18.57;;;11.67;;
14768;SDS011;7476;49.404;11.152;2024-01-30T06:22:26;15.97;;;11.47;;
14768;SDS011;7476;49.404;11.152;2024-01-30T06:24:53;20.03;;;12.67;;
14768;SDS011;7476;49.404;11.152;2024-01-30T06:27:20;17.93;;;11.80;;
14768;SDS011;7476;49.404;11.152;2024-01-30T06:29:46;18.87;;;11.93;;
14768;SDS011;7476;49.404;11.152;2024-01-30T06:32:13;20.47;;;12.70;;
14768;SDS011;7476;49.404;11.152;2024-01-30T06:34:40;19.53;;;12.33;;
14768;SDS011;7476;49.404;11.152;2024-01-30T06:37:09;22.93;;;13.53;;
14768;SDS011;7476;49.404;11.152;2024-01-30T06:39:37;22.43;;;12.47;;
14768;SDS011;7476;49.404;11.152;2024-01-30T06:42:04;21.90;;;13.73;;
14768;SDS011;7476;49.404;11.152;2024-01-30T06:44:31;22.43;;;15.30;;
14768;SDS011;7476;49.404;11.152;2024-01-30T06:46:57;20.77;;;13.67;;
14768;SDS011;7476;49.404;11.152;2024-01-30T06:49:24;20.97;;;14.10;;
14768;SDS011;7476;49.404;11.152;2024-01-30T06:51:52;23.30;;;14.13;;
14768;SDS011;7476;49.404;11.152;2024-01-30T06:54:18;21.00;;;13.10;;
14768;SDS011;7476;49.404;11.152;2024-01-30T06:56:47;22.97;;;14.17;;
14768;SDS011;7476;49.404;11.152;2024-01-30T06:59:13;21.27;;;14.10;;
14768;SDS011;7476;49.404;11.152;2024-01-30T07:01:40;20.30;;;14.50;;
14768;SDS011;7476;49.404;11.152;2024-01-30T07:04:07;21.77;;;14.83;;
14768;SDS011;7476;49.404;11.152;2024-01-30T07:06:33;21.90;;;14.33;;
14768;SDS011;7476;49.404;11.152;2024-01-30T07:09:00;17.57;;;13.17;;
14768;SDS011;7476;49.404;11.152;2024-01-30T07:11:28;19.63;;;13.57;;
14768;SDS011;7476;49.404;11.152;2024-01-30T07:13:56;21.53;;;13.97;;
14768;SDS011;7476;49.404;11.152;2024-01-30T07:16:23;21.07;;;14.23;;
14768;SDS011;7476;49.404;11.152;2024-01-30T07:18:50;21.00;;;13.30;;
14768;SDS011;7476;49.404;11.152;2024-01-30T07:21:17;18.93;;;13.50;;
14768;SDS011;7476;49.404;11.152;2024-01-30T07:23:43;19.40;;;13.77;;
14768;SDS011;7476;49.404;11.152;2024-01-30T07:26:10;19.53;;;13.67;;
14768;SDS011;7476;49.404;11.152;2024-01-30T07:28:37;22.40;;;13.40;;
14768;SDS011;7476;49.404;11.152;2024-01-30T07:31:05;20.70;;;13.87;;
14768;SDS011;7476;49.404;11.152;2024-01-30T07:33:32;21.97;;;13.87;;
14768;SDS011;7476;49.404;11.152;2024-01-30T07:35:58;23.43;;;12.93;;
14768;SDS011;7476;49.404;11.152;2024-01-30T07:38:25;19.50;;;13.67;;
14768;SDS011;7476;49.404;11.152;2024-01-30T07:40:52;20.43;;;13.17;;
14768;SDS011;7476;49.404;11.152;2024-01-30T07:43:18;21.47;;;14.10;;
14768;SDS011;7476;49.404;11.152;2024-01-30T07:45:46;20.00;;;13.60;;
14768;SDS011;7476;49.404;11.152;2024-01-30T07:48:14;19.97;;;14.20;;
14768;SDS011;7476;49.404;11.152;2024-01-30T07:50:41;18.40;;;13.77;;
14768;SDS011;7476;49.404;11.152;2024-01-30T07:53:07;23.10;;;15.00;;
14768;SDS011;7476;49.404;11.152;2024-01-30T07:55:34;20.37;;;14.10;;
14768;SDS011;7476;49.404;11.152;2024-01-30T07:58:01;19.00;;;13.07;;
14768;SDS011;7476;49.404;11.152;2024-01-30T08:00:29;20.90;;;14.13;;
14768;SDS011;7476;49.404;11.152;2024-01-30T08:02:56;21.83;;;14.13;;
14768;SDS011;7476;49.404;11.152;2024-01-30T08:05:25;23.60;;;13.63;;
14768;SDS011;7476;49.404;11.152;2024-01-30T08:07:51;23.37;;;14.77;;
14768;SDS011;7476;49.404;11.152;2024-01-30T08:10:18;17.43;;;13.00;;
14768;SDS011;7476;49.404;11.152;2024-01-30T08:12:45;18.30;;;12.77;;
14768;SDS011;7476;49.404;11.152;2024-01-30T08:15:11;21.33;;;13.27;;
14768;SDS011;7476;49.404;11.152;2024-01-30T08:17:38;21.00;;;13.67;;
14768;SDS011;7476;49.404;11.152;2024-01-30T08:20:05;17.07;;;12.77;;
14768;SDS011;7476;49.404;11.152;2024-01-30T08:22:34;17.73;;;12.50;;
14768;SDS011;7476;49.404;11.152;2024-01-30T08:25:01;17.47;;;12.73;;
14768;SDS011;7476;49.404;11.152;2024-01-30T08:27:27;17.10;;;12.47;;
14768;SDS011;7476;49.404;11.152;2024-01-30T08:29:54;19.73;;;12.17;;
14768;SDS011;7476;49.404;11.152;2024-01-30T08:32:21;18.17;;;12.37;;
14768;SDS011;7476;49.404;11.152;2024-01-30T08:34:48;17.70;;;12.37;;
14768;SDS011;7476;49.404;11.152;2024-01-30T08:37:15;20.27;;;12.70;;
14768;SDS011;7476;49.404;11.152;2024-01-30T08:39:44;18.57;;;12.90;;
14768;SDS011;7476;49.404;11.152;2024-01-30T08:42:11;16.33;;;11.73;;
14768;SDS011;7476;49.404;11.152;2024-01-30T08:44:37;17.13;;;12.57;;
14768;SDS011;7476;49.404;11.152;2024-01-30T08:47:04;17.20;;;12.23;;
14768;SDS011;7476;49.404;11.152;2024-01-30T08:49:31;17.93;;;13.13;;
14768;SDS011;7476;49.404;11.152;2024-01-30T08:51:58;16.27;;;11.77;;
14768;SDS011;7476;49.404;11.152;2024-01-30T08:54:25;19.10;;;12.13;;
14768;SDS011;7476;49.404;11.152;2024-01-30T08:56:53;15.17;;;11.13;;
14768;SDS011;7476;49.404;11.152;2024-01-30T08:59:21;15.70;;;11.40;;
14768;SDS011;7476;49.404;11.152;2024-01-30T09:01:48;17.17;;;11.70;;
14768;SDS011;7476;49.404;11.152;2024-01-30T09:04:18;16.33;;;11.97;;
14768;SDS011;7476;49.404;11.152;2024-01-30T09:06:45;18.17;;;12.90;;
14768;SDS011;7476;49.404;11.152;2024-01-30T09:09:11;17.00;;;11.77;;
14768;SDS011;7476;49.404;11.152;2024-01-30T09:11:39;16.43;;;11.80;;
14768;SDS011;7476;49.404;11.152;2024-01-30T09:14:07;17.57;;;12.27;;
14768;SDS011;7476;49.404;11.152;2024-01-30T09:16:34;17.73;;;12.33;;
14768;SDS011;7476;49.404;11.152;2024-01-30T09:19:01;14.80;;;11.53;;
14768;SDS011;7476;49.404;11.152;2024-01-30T09:21:27;15.27;;;12.13;;
14768;SDS011;7476;49.404;11.152;2024-01-30T09:23:54;16.27;;;11.60;;
14768;SDS011;7476;49.404;11.152;2024-01-30T09:26:27;15.07;;;11.17;;
14768;SDS011;7476;49.404;11.152;2024-01-30T09:28:54;15.20;;;11.03;;
14768;SDS011;7476;49.404;11.152;2024-01-30T09:31:22;13.37;;;10.87;;
14768;SDS011;7476;49.404;11.152;2024-01-30T09:33:48;14.10;;;10.83;;
14768;SDS011;7476;49.404;11.152;2024-01-30T09:36:16;15.57;;;10.53;;
14768;SDS011;7476;49.404;11.152;2024-01-30T09:38:44;15.53;;;11.10;;
14768;SDS011;7476;49.404;11.152;2024-01-30T09:41:11;16.93;;;11.33;;
14768;SDS011;7476;49.404;11.152;2024-01-30T09:43:38;15.87;;;11.17;;
14768;SDS011;7476;49.404;11.152;2024-01-30T09:46:06;14.67;;;11.30;;
14768;SDS011;7476;49.404;11.152;2024-01-30T09:48:39;13.93;;;10.70;;
14768;SDS011;7476;49.404;11.152;2024-01-30T09:51:07;14.50;;;11.10;;
14768;SDS011;7476;49.404;11.152;2024-01-30T09:53:35;12.77;;;10.87;;
14768;SDS011;7476;49.404;11.152;2024-01-30T09:56:02;14.40;;;11.27;;
14768;SDS011;7476;49.404;11.152;2024-01-30T09:58:30;13.63;;;10.90;;
14768;SDS011;7476;49.404;11.152;2024-01-30T10:00:56;15.43;;;10.13;;
14768;SDS011;7476;49.404;11.152;2024-01-30T10:03:23;13.17;;;10.67;;
14768;SDS011;7476;49.404;11.152;2024-01-30T10:05:51;13.17;;;10.47;;
14768;SDS011;7476;49.404;11.152;2024-01-30T10:08:18;11.63;;;10.00;;
14768;SDS011;7476;49.404;11.152;2024-01-30T10:10:45;12.27;;;10.17;;
14768;SDS011;7476;49.404;11.152;2024-01-30T10:13:12;15.20;;;10.30;;
14768;SDS011;7476;49.404;11.152;2024-01-30T10:15:39;13.73;;;10.40;;
14768;SDS011;7476;49.404;11.152;2024-01-30T10:18:06;15.63;;;10.80;;
14768;SDS011;7476;49.404;11.152;2024-01-30T10:20:33;13.90;;;9.90;;
14768;SDS011;7476;49.404;11.152;2024-01-30T10:23:01;13.23;;;9.53;;
14768;SDS011;7476;49.404;11.152;2024-01-30T10:25:28;13.20;;;9.80;;
14768;SDS011;7476;49.404;11.152;2024-01-30T10:27:57;11.33;;;9.40;;
14768;SDS011;7476;49.404;11.152;2024-01-30T10:30:25;13.37;;;10.50;;
14768;SDS011;7476;49.404;11.152;2024-01-30T10:32:53;12.93;;;10.73;;
14768;SDS011;7476;49.404;11.152;2024-01-30T10:35:19;11.67;;;10.30;;
14768;SDS011;7476;49.404;11.152;2024-01-30T10:37:47;12.23;;;9.83;;
14768;SDS011;7476;49.404;11.152;2024-01-30T10:40:15;13.37;;;9.67;;
14768;SDS011;7476;49.404;11.152;2024-01-30T10:42:42;12.37;;;9.57;;
14768;SDS011;7476;49.404;11.152;2024-01-30T10:45:11;13.93;;;10.03;;
14768;SDS011;7476;49.404;11.152;2024-01-30T10:47:39;12.57;;;9.90;;
14768;SDS011;7476;49.404;11.152;2024-01-30T10:50:07;12.07;;;9.53;;
14768;SDS011;7476;49.404;11.152;2024-01-30T10:52:35;13.50;;;10.40;;
14768;SDS011;7476;49.404;11.152;2024-01-30T10:55:03;13.77;;;10.27;;
14768;SDS011;7476;49.404;11.152;2024-01-30T10:57:33;12.57;;;9.67;;
14768;SDS011;7476;49.404;11.152;2024-01-30T11:00:02;11.07;;;9.30;;
14768;SDS011;7476;49.404;11.152;2024-01-30T11:02:35;15.17;;;9.80;;
14768;SDS011;7476;49.404;11.152;2024-01-30T11:05:04;13.73;;;10.03;;
14768;SDS011;7476;49.404;11.152;2024-01-30T11:07:31;11.43;;;9.70;;
14768;SDS011;7476;49.404;11.152;2024-01-30T11:10:01;11.93;;;9.63;;
14768;SDS011;7476;49.404;11.152;2024-01-30T11:12:30;13.13;;;9.73;;
14768;SDS011;7476;49.404;11.152;2024-01-30T11:15:03;12.50;;;9.17;;
14768;SDS011;7476;49.404;11.152;2024-01-30T11:17:41;12.10;;;8.90;;
14768;SDS011;7476;49.404;11.152;2024-01-30T11:20:12;13.17;;;9.60;;
14768;SDS011;7476;49.404;11.152;2024-01-30T11:22:41;12.20;;;9.13;;
14768;SDS011;7476;49.404;11.152;2024-01-30T11:25:13;13.43;;;9.73;;
14768;SDS011;7476;49.404;11.152;2024-01-30T11:27:41;11.07;;;9.30;;
14768;SDS011;7476;49.404;11.152;2024-01-30T11:30:09;10.67;;;8.90;;
14768;SDS011;7476;49.404;11.152;2024-01-30T11:32:37;11.53;;;8.70;;
14768;SDS011;7476;49.404;11.152;2024-01-30T11:35:04;12.63;;;9.30;;
14768;SDS011;7476;49.404;11.152;2024-01-30T11:37:33;12.33;;;9.30;;
14768;SDS011;7476;49.404;11.152;2024-01-30T11:40:04;11.57;;;8.93;;
14768;SDS011;7476;49.404;11.152;2024-01-30T11:42:31;11.73;;;8.73;;
14768;SDS011;7476;49.404;11.152;2024-01-30T11:45:00;9.30;;;7.90;;
14768;SDS011;7476;49.404;11.152;2024-01-30T11:47:29;12.37;;;8.83;;
14768;SDS011;7476;49.404;11.152;2024-01-30T11:49:56;10.37;;;8.60;;
14768;SDS011;7476;49.404;11.152;2024-01-30T11:52:23;11.30;;;8.57;;
14768;SDS011;7476;49.404;11.152;2024-01-30T11:54:50;11.30;;;8.53;;
14768;SDS011;7476;49.404;11.152;2024-01-30T11:57:16;9.80;;;8.80;;
14768;SDS011;7476;49.404;11.152;2024-01-30T11:59:43;11.57;;;9.10;;
14768;SDS011;7476;49.404;11.152;2024-01-30T12:02:14;11.70;;;8.70;;
14768;SDS011;7476;49.404;11.152;2024-01-30T12:04:43;9.97;;;8.40;;
14768;SDS011;7476;49.404;11.152;2024-01-30T12:07:10;12.47;;;9.17;;
14768;SDS011;7476;49.404;11.152;2024-01-30T12:09:37;10.37;;;8.60;;
14768;SDS011;7476;49.404;11.152;2024-01-30T12:12:04;11.07;;;8.47;;
14768;SDS011;7476;49.404;11.152;2024-01-30T12:14:36;10.70;;;8.40;;
14768;SDS011;7476;49.404;11.152;2024-01-30T12:17:04;13.03;;;8.50;;
14768;SDS011;7476;49.404;11.152;2024-01-30T12:19:31;13.00;;;8.27;;
14768;SDS011;7476;49.404;11.152;2024-01-30T12:21:59;10.90;;;9.10;;
14768;SDS011;7476;49.404;11.152;2024-01-30T12:24:26;10.40;;;8.60;;
14768;SDS011;7476;49.404;11.152;2024-01-30T12:26:56;13.07;;;9.00;;
14768;SDS011;7476;49.404;11.152;2024-01-30T12:29:23;12.40;;;8.87;;
14768;SDS011;7476;49.404;11.152;2024-01-30T12:31:52;11.20;;;9.00;;
14768;SDS011;7476;49.404;11.152;2024-01-30T12:34:19;13.77;;;9.83;;
14768;SDS011;7476;49.404;11.152;2024-01-30T12:36:46;14.80;;;9.77;;
14768;SDS011;7476;49.404;11.152;2024-01-30T12:39:15;12.50;;;10.13;;
14768;SDS011;7476;49.404;11.152;2024-01-30T12:41:42;14.80;;;10.07;;
14768;SDS011;7476;49.404;11.152;2024-01-30T12:44:08;12.80;;;9.77;;
14768;SDS011;7476;49.404;11.152;2024-01-30T12:46:35;14.43;;;10.67;;
14768;SDS011;7476;49.404;11.152;2024-01-30T12:49:02;12.97;;;10.47;;
14768;SDS011;7476;49.404;11.152;2024-01-30T12:51:29;14.27;;;10.60;;
14768;SDS011;7476;49.404;11.152;2024-01-30T12:53:55;13.53;;;10.13;;
14768;SDS011;7476;49.404;11.152;2024-01-30T12:56:23;14.57;;;11.33;;
14768;SDS011;7476;49.404;11.152;2024-01-30T12:58:50;14.37;;;11.80;;
14768;SDS011;7476;49.404;11.152;2024-01-30T13:01:17;16.10;;;11.83;;
14768;SDS011;7476;49.404;11.152;2024-01-30T13:03:44;15.83;;;12.07;;
14768;SDS011;7476;49.404;11.152;2024-01-30T13:06:11;16.97;;;12.50;;
14768;SDS011;7476;49.404;11.152;2024-01-30T13:08:38;14.53;;;12.03;;
14768;SDS011;7476;49.404;11.152;2024-01-30T13:11:04;14.03;;;10.97;;
14768;SDS011;7476;49.404;11.152;2024-01-30T13:13:33;16.13;;;11.90;;
14768;SDS011;7476;49.404;11.152;2024-01-30T13:16:00;14.03;;;11.20;;
14768;SDS011;7476;49.404;11.152;2024-01-30T13:18:27;14.93;;;11.00;;
14768;SDS011;7476;49.404;11.152;2024-01-30T13:20:54;11.83;;;9.97;;
14768;SDS011;7476;49.404;11.152;2024-01-30T13:23:20;13.07;;;10.40;;
14768;SDS011;7476;49.404;11.152;2024-01-30T13:25:47;11.97;;;10.23;;
14768;SDS011;7476;49.404;11.152;2024-01-30T13:28:14;15.73;;;10.53;;
14768;SDS011;7476;49.404;11.152;2024-01-30T13:30:42;12.97;;;10.40;;
14768;SDS011;7476;49.404;11.152;2024-01-30T13:33:08;13.37;;;10.83;;
14768;SDS011;7476;49.404;11.152;2024-01-30T13:35:35;13.57;;;10.27;;
14768;SDS011;7476;49.404;11.152;2024-01-30T13:38:02;13.53;;;10.27;;
14768;SDS011;7476;49.404;11.152;2024-01-30T13:40:29;11.03;;;9.40;;
14768;SDS011;7476;49.404;11.152;2024-01-30T13:42:55;12.27;;;9.83;;
14768;SDS011;7476;49.404;11.152;2024-01-30T13:45:22;12.53;;;9.53;;
14768;SDS011;7476;49.404;11.152;2024-01-30T13:47:50;12.80;;;9.73;;
14768;SDS011;7476;49.404;11.152;2024-01-30T13:50:17;11.97;;;9.70;;
14768;SDS011;7476;49.404;11.152;2024-01-30T13:52:44;12.33;;;9.57;;
14768;SDS011;7476;49.404;11.152;2024-01-30T13:55:10;12.23;;;9.40;;
14768;SDS011;7476;49.404;11.152;2024-01-30T13:57:37;13.90;;;10.33;;
14768;SDS011;7476;49.404;11.152;2024-01-30T14:00:04;13.33;;;9.90;;
14768;SDS011;7476;49.404;11.152;2024-01-30T14:02:32;14.27;;;9.40;;
14768;SDS011;7476;49.404;11.152;2024-01-30T14:05:00;12.20;;;10.27;;
14768;SDS011;7476;49.404;11.152;2024-01-30T14:07:29;12.77;;;9.63;;
14768;SDS011;7476;49.404;11.152;2024-01-30T14:09:56;11.70;;;9.67;;
14768;SDS011;7476;49.404;11.152;2024-01-30T14:12:22;14.27;;;9.60;;
14768;SDS011;7476;49.404;11.152;2024-01-30T14:14:49;13.80;;;10.10;;
14768;SDS011;7476;49.404;11.152;2024-01-30T14:17:16;14.77;;;9.90;;
14768;SDS011;7476;49.404;11.152;2024-01-30T14:19:42;12.63;;;9.37;;
14768;SDS011;7476;49.404;11.152;2024-01-30T14:22:10;13.57;;;9.57;;
14768;SDS011;7476;49.404;11.152;2024-01-30T14:24:37;12.10;;;9.37;;
14768;SDS011;7476;49.404;11.152;2024-01-30T14:27:04;12.20;;;9.67;;
14768;SDS011;7476;49.404;11.152;2024-01-30T14:29:32;12.37;;;9.23;;
14768;SDS011;7476;49.404;11.152;2024-01-30T14:31:59;12.20;;;8.87;;